sensor_id;sensor_type;location;lat;lon;timestamp;pressure;altitude;pressure_sealevel;temperature;humidity
56604;BME280;42486;47.478;19.036;2022-08-19T00:00:46;99714.19;;;24.55;57.59
56604;BME280;42486;47.478;19.036;2022-08-19T00:03:48;99704.91;;;24.57;57.19
56604;BME280;42486;47.478;19.036;2022-08-19T00:06:51;99710.91;;;24.53;57.33
56604;BME280;42486;47.478;19.036;2022-08-19T00:09:53;99711.94;;;24.52;57.40
56604;BME280;42486;47.478;19.036;2022-08-19T00:12:57;99713.56;;;24.53;57.18
56604;BME280;42486;47.478;19.036;2022-08-19T00:16:00;99715.44;;;24.52;57.41
56604;BME280;42486;47.478;19.036;2022-08-19T00:19:04;99712.97;;;24.51;57.54
56604;BME280;42486;47.478;19.036;2022-08-19T00:22:06;99706.59;;;24.52;57.65
56604;BME280;42486;47.478;19.036;2022-08-19T00:25:11;99709.84;;;24.54;57.14
56604;BME280;42486;47.478;19.036;2022-08-19T00:28:16;99702.28;;;24.51;57.64
56604;BME280;42486;47.478;19.036;2022-08-19T00:31:19;99718.03;;;24.59;57.24
56604;BME280;42486;47.478;19.036;2022-08-19T00:34:21;99718.09;;;24.52;57.30
56604;BME280;42486;47.478;19.036;2022-08-19T00:37:24;99712.94;;;24.57;57.06
56604;BME280;42486;47.478;19.036;2022-08-19T00:40:32;99719.44;;;24.61;57.33
56604;BME280;42486;47.478;19.036;2022-08-19T00:43:35;99710.75;;;24.48;57.51
56604;BME280;42486;47.478;19.036;2022-08-19T00:46:39;99718.91;;;24.53;57.20
56604;BME280;42486;47.478;19.036;2022-08-19T00:49:51;99702.25;;;24.57;57.22
56604;BME280;42486;47.478;19.036;2022-08-19T00:52:54;99708.22;;;24.53;57.15
56604;BME280;42486;47.478;19.036;2022-08-19T00:55:59;99699.62;;;24.51;57.28
56604;BME280;42486;47.478;19.036;2022-08-19T00:59:03;99694.94;;;24.46;57.69
56604;BME280;42486;47.478;19.036;2022-08-19T01:02:13;99700.53;;;24.38;58.15
56604;BME280;42486;47.478;19.036;2022-08-19T01:05:20;99696.87;;;24.32;58.27
56604;BME280;42486;47.478;19.036;2022-08-19T01:08:24;99693.03;;;24.28;58.10
56604;BME280;42486;47.478;19.036;2022-08-19T01:11:28;99695.03;;;24.33;58.16
56604;BME280;42486;47.478;19.036;2022-08-19T01:14:33;99696.28;;;24.30;58.37
56604;BME280;42486;47.478;19.036;2022-08-19T01:17:36;99700.53;;;24.38;58.20
56604;BME280;42486;47.478;19.036;2022-08-19T01:20:40;99698.50;;;24.33;58.14
56604;BME280;42486;47.478;19.036;2022-08-19T01:23:43;99688.09;;;24.25;58.57
56604;BME280;42486;47.478;19.036;2022-08-19T01:26:47;99683.31;;;24.34;58.31
56604;BME280;42486;47.478;19.036;2022-08-19T01:29:50;99688.59;;;24.66;56.97
56604;BME280;42486;47.478;19.036;2022-08-19T01:32:53;99690.25;;;24.60;56.93
56604;BME280;42486;47.478;19.036;2022-08-19T01:36:10;99687.97;;;24.45;57.84
56604;BME280;42486;47.478;19.036;2022-08-19T01:39:18;99678.03;;;24.52;56.30
56604;BME280;42486;47.478;19.036;2022-08-19T01:42:24;99674.53;;;24.70;56.67
56604;BME280;42486;47.478;19.036;2022-08-19T01:45:32;99677.97;;;24.59;57.09
56604;BME280;42486;47.478;19.036;2022-08-19T01:48:38;99678.12;;;24.64;55.96
56604;BME280;42486;47.478;19.036;2022-08-19T01:51:42;99675.53;;;24.57;56.80
56604;BME280;42486;47.478;19.036;2022-08-19T01:54:44;99676.72;;;24.80;56.17
56604;BME280;42486;47.478;19.036;2022-08-19T01:57:53;99664.91;;;24.69;56.07
56604;BME280;42486;47.478;19.036;2022-08-19T02:00:58;99657.78;;;24.63;56.60
56604;BME280;42486;47.478;19.036;2022-08-19T02:04:01;99660.38;;;24.70;56.50
56604;BME280;42486;47.478;19.036;2022-08-19T02:07:04;99660.31;;;24.58;56.48
56604;BME280;42486;47.478;19.036;2022-08-19T02:10:08;99659.13;;;24.72;55.47
56604;BME280;42486;47.478;19.036;2022-08-19T02:13:15;99644.84;;;24.60;56.61
56604;BME280;42486;47.478;19.036;2022-08-19T02:16:27;99643.22;;;24.59;56.90
56604;BME280;42486;47.478;19.036;2022-08-19T02:19:30;99636.84;;;24.60;56.99
56604;BME280;42486;47.478;19.036;2022-08-19T02:22:41;99634.56;;;24.64;57.13
56604;BME280;42486;47.478;19.036;2022-08-19T02:25:45;99645.59;;;24.67;57.22
56604;BME280;42486;47.478;19.036;2022-08-19T02:28:50;99639.44;;;24.48;57.99
56604;BME280;42486;47.478;19.036;2022-08-19T02:31:53;99634.97;;;24.42;58.38
56604;BME280;42486;47.478;19.036;2022-08-19T02:34:56;99634.06;;;24.55;58.07
56604;BME280;42486;47.478;19.036;2022-08-19T02:37:59;99646.19;;;24.51;58.74
56604;BME280;42486;47.478;19.036;2022-08-19T02:41:27;99647.94;;;24.38;57.84
56604;BME280;42486;47.478;19.036;2022-08-19T02:44:30;99645.25;;;24.38;58.67
56604;BME280;42486;47.478;19.036;2022-08-19T02:47:33;99656.22;;;24.55;58.20
56604;BME280;42486;47.478;19.036;2022-08-19T02:50:39;99655.56;;;24.35;58.79
56604;BME280;42486;47.478;19.036;2022-08-19T02:53:54;99667.50;;;24.32;59.13
56604;BME280;42486;47.478;19.036;2022-08-19T02:56:56;99663.34;;;24.18;59.58
56604;BME280;42486;47.478;19.036;2022-08-19T03:00:03;99668.19;;;24.03;59.94
56604;BME280;42486;47.478;19.036;2022-08-19T03:03:07;99671.28;;;24.00;59.65
56604;BME280;42486;47.478;19.036;2022-08-19T03:06:12;99677.88;;;23.97;60.07
56604;BME280;42486;47.478;19.036;2022-08-19T03:09:18;99677.44;;;24.00;59.60
56604;BME280;42486;47.478;19.036;2022-08-19T03:12:24;99665.34;;;23.98;59.53
56604;BME280;42486;47.478;19.036;2022-08-19T03:15:27;99678.41;;;24.06;59.17
56604;BME280;42486;47.478;19.036;2022-08-19T03:18:30;99678.34;;;23.87;59.94
56604;BME280;42486;47.478;19.036;2022-08-19T03:21:33;99683.41;;;23.95;59.74
56604;BME280;42486;47.478;19.036;2022-08-19T03:24:36;99693.72;;;24.17;59.22
56604;BME280;42486;47.478;19.036;2022-08-19T03:27:40;99687.50;;;23.98;60.06
56604;BME280;42486;47.478;19.036;2022-08-19T03:30:43;99691.31;;;23.84;60.79
56604;BME280;42486;47.478;19.036;2022-08-19T03:34:02;99694.63;;;23.79;61.24
56604;BME280;42486;47.478;19.036;2022-08-19T03:37:10;99693.81;;;23.79;61.14
56604;BME280;42486;47.478;19.036;2022-08-19T03:40:16;99695.47;;;23.66;61.26
56604;BME280;42486;47.478;19.036;2022-08-19T03:43:21;99690.97;;;23.67;61.38
56604;BME280;42486;47.478;19.036;2022-08-19T03:46:33;99700.38;;;23.76;61.09
56604;BME280;42486;47.478;19.036;2022-08-19T03:49:36;99695.72;;;23.65;61.81
56604;BME280;42486;47.478;19.036;2022-08-19T03:52:47;99702.91;;;23.64;61.93
56604;BME280;42486;47.478;19.036;2022-08-19T03:55:49;99702.84;;;23.78;61.64
56604;BME280;42486;47.478;19.036;2022-08-19T03:58:52;99712.34;;;23.60;62.49
56604;BME280;42486;47.478;19.036;2022-08-19T04:01:59;99714.22;;;23.53;62.57
56604;BME280;42486;47.478;19.036;2022-08-19T04:05:02;99707.81;;;23.67;61.60
56604;BME280;42486;47.478;19.036;2022-08-19T04:08:04;99702.03;;;23.70;61.16
56604;BME280;42486;47.478;19.036;2022-08-19T04:11:15;99717.03;;;23.71;61.02
56604;BME280;42486;47.478;19.036;2022-08-19T04:14:19;99722.97;;;23.67;60.90
56604;BME280;42486;47.478;19.036;2022-08-19T04:17:21;99721.78;;;23.63;60.79
56604;BME280;42486;47.478;19.036;2022-08-19T04:20:24;99733.22;;;23.77;60.15
56604;BME280;42486;47.478;19.036;2022-08-19T04:23:28;99732.41;;;23.76;60.11
56604;BME280;42486;47.478;19.036;2022-08-19T04:26:33;99732.16;;;23.84;59.72
56604;BME280;42486;47.478;19.036;2022-08-19T04:29:37;99725.84;;;23.72;60.19
56604;BME280;42486;47.478;19.036;2022-08-19T04:32:45;99730.12;;;23.80;60.12
56604;BME280;42486;47.478;19.036;2022-08-19T04:35:48;99736.78;;;23.95;59.55
56604;BME280;42486;47.478;19.036;2022-08-19T04:38:53;99736.75;;;24.02;59.38
56604;BME280;42486;47.478;19.036;2022-08-19T04:41:56;99744.94;;;24.07;59.29
56604;BME280;42486;47.478;19.036;2022-08-19T04:45:17;99741.87;;;24.04;59.42
56604;BME280;42486;47.478;19.036;2022-08-19T04:48:23;99746.47;;;23.90;60.03
56604;BME280;42486;47.478;19.036;2022-08-19T04:51:36;99748.31;;;23.89;60.53
56604;BME280;42486;47.478;19.036;2022-08-19T04:54:42;99735.94;;;24.02;60.54
56604;BME280;42486;47.478;19.036;2022-08-19T04:57:46;99736.50;;;24.10;59.83
56604;BME280;42486;47.478;19.036;2022-08-19T05:00:51;99735.19;;;24.20;59.35
56604;BME280;42486;47.478;19.036;2022-08-19T05:03:53;99742.97;;;24.21;59.56
56604;BME280;42486;47.478;19.036;2022-08-19T05:06:55;99749.47;;;24.32;60.64
56604;BME280;42486;47.478;19.036;2022-08-19T05:10:03;99747.84;;;24.31;59.81
56604;BME280;42486;47.478;19.036;2022-08-19T05:13:10;99746.84;;;24.25;59.99
56604;BME280;42486;47.478;19.036;2022-08-19T05:16:15;99745.59;;;24.28;58.82
56604;BME280;42486;47.478;19.036;2022-08-19T05:19:17;99744.28;;;24.37;58.49
56604;BME280;42486;47.478;19.036;2022-08-19T05:22:38;99753.25;;;24.49;57.62
56604;BME280;42486;47.478;19.036;2022-08-19T05:25:42;99741.41;;;24.64;57.05
56604;BME280;42486;47.478;19.036;2022-08-19T05:28:45;99751.09;;;24.83;56.50
56604;BME280;42486;47.478;19.036;2022-08-19T05:31:55;99745.53;;;24.85;56.40
56604;BME280;42486;47.478;19.036;2022-08-19T05:34:59;99739.81;;;24.99;56.29
56604;BME280;42486;47.478;19.036;2022-08-19T05:38:01;99746.88;;;25.12;55.95
56604;BME280;42486;47.478;19.036;2022-08-19T05:41:08;99752.19;;;25.19;55.75
56604;BME280;42486;47.478;19.036;2022-08-19T05:44:11;99756.94;;;25.17;55.63
56604;BME280;42486;47.478;19.036;2022-08-19T05:47:17;99756.25;;;25.03;54.96
56604;BME280;42486;47.478;19.036;2022-08-19T05:50:22;99753.28;;;25.30;54.87
56604;BME280;42486;47.478;19.036;2022-08-19T05:53:28;99754.91;;;25.49;54.25
56604;BME280;42486;47.478;19.036;2022-08-19T05:56:30;99756.47;;;25.68;54.74
56604;BME280;42486;47.478;19.036;2022-08-19T05:59:33;99751.38;;;25.67;53.57
56604;BME280;42486;47.478;19.036;2022-08-19T06:02:40;99751.19;;;25.80;53.97
56604;BME280;42486;47.478;19.036;2022-08-19T06:05:43;99750.34;;;25.80;53.98
56604;BME280;42486;47.478;19.036;2022-08-19T06:08:52;99749.66;;;25.73;53.47
56604;BME280;42486;47.478;19.036;2022-08-19T06:11:56;99748.06;;;25.83;52.72
56604;BME280;42486;47.478;19.036;2022-08-19T06:15:05;99751.72;;;26.01;53.06
56604;BME280;42486;47.478;19.036;2022-08-19T06:18:09;99750.37;;;26.10;53.27
56604;BME280;42486;47.478;19.036;2022-08-19T06:21:12;99753.69;;;26.47;52.14
56604;BME280;42486;47.478;19.036;2022-08-19T06:24:16;99755.44;;;26.42;51.29
56604;BME280;42486;47.478;19.036;2022-08-19T06:27:19;99757.00;;;26.73;51.06
56604;BME280;42486;47.478;19.036;2022-08-19T06:30:21;99751.63;;;26.73;50.51
56604;BME280;42486;47.478;19.036;2022-08-19T06:33:24;99742.72;;;26.96;50.02
56604;BME280;42486;47.478;19.036;2022-08-19T06:36:33;99737.00;;;27.16;49.19
56604;BME280;42486;47.478;19.036;2022-08-19T06:39:38;99736.41;;;27.26;49.73
56604;BME280;42486;47.478;19.036;2022-08-19T06:42:41;99736.19;;;27.56;49.15
56604;BME280;42486;47.478;19.036;2022-08-19T06:45:56;99748.50;;;27.40;49.57
56604;BME280;42486;47.478;19.036;2022-08-19T06:48:59;99737.22;;;27.55;48.48
56604;BME280;42486;47.478;19.036;2022-08-19T06:52:04;99733.75;;;27.83;48.50
56604;BME280;42486;47.478;19.036;2022-08-19T06:55:07;99726.50;;;27.83;48.31
56604;BME280;42486;47.478;19.036;2022-08-19T06:58:09;99731.16;;;27.88;47.88
56604;BME280;42486;47.478;19.036;2022-08-19T07:01:12;99734.75;;;28.10;47.61
56604;BME280;42486;47.478;19.036;2022-08-19T07:04:15;99744.06;;;28.20;46.69
56604;BME280;42486;47.478;19.036;2022-08-19T07:07:21;99753.50;;;28.22;47.24
56604;BME280;42486;47.478;19.036;2022-08-19T07:10:24;99759.88;;;28.50;46.14
56604;BME280;42486;47.478;19.036;2022-08-19T07:13:27;99765.16;;;29.01;45.80
56604;BME280;42486;47.478;19.036;2022-08-19T07:16:29;99770.50;;;29.61;43.81
56604;BME280;42486;47.478;19.036;2022-08-19T07:19:35;99773.28;;;30.58;41.75
56604;BME280;42486;47.478;19.036;2022-08-19T07:22:40;99778.53;;;32.11;38.22
56604;BME280;42486;47.478;19.036;2022-08-19T07:25:43;99774.13;;;33.67;35.06
56604;BME280;42486;47.478;19.036;2022-08-19T07:28:54;99783.47;;;34.30;33.89
56604;BME280;42486;47.478;19.036;2022-08-19T07:31:59;99786.13;;;34.93;32.72
56604;BME280;42486;47.478;19.036;2022-08-19T07:35:01;99779.41;;;34.85;32.81
56604;BME280;42486;47.478;19.036;2022-08-19T07:38:07;99777.00;;;33.86;33.72
56604;BME280;42486;47.478;19.036;2022-08-19T07:41:12;99781.28;;;34.32;33.54
56604;BME280;42486;47.478;19.036;2022-08-19T07:44:15;99777.69;;;35.81;31.44
56604;BME280;42486;47.478;19.036;2022-08-19T07:47:17;99779.97;;;36.44;29.92
56604;BME280;42486;47.478;19.036;2022-08-19T07:50:40;99769.53;;;36.65;29.53
56604;BME280;42486;47.478;19.036;2022-08-19T07:53:43;99769.41;;;36.70;29.17
56604;BME280;42486;47.478;19.036;2022-08-19T07:56:46;99767.94;;;37.19;28.57
56604;BME280;42486;47.478;19.036;2022-08-19T07:59:53;99774.91;;;38.43;25.96
56604;BME280;42486;47.478;19.036;2022-08-19T08:02:55;99780.91;;;37.86;26.00
56604;BME280;42486;47.478;19.036;2022-08-19T08:05:58;99777.84;;;38.02;26.05
56604;BME280;42486;47.478;19.036;2022-08-19T08:09:41;99778.88;;;39.00;24.89
56604;BME280;42486;47.478;19.036;2022-08-19T08:12:50;99776.53;;;37.99;26.04
56604;BME280;42486;47.478;19.036;2022-08-19T08:16:11;99770.94;;;36.63;27.77
56604;BME280;42486;47.478;19.036;2022-08-19T08:19:15;99779.13;;;35.35;29.57
56604;BME280;42486;47.478;19.036;2022-08-19T08:22:26;99776.59;;;34.96;29.78
56604;BME280;42486;47.478;19.036;2022-08-19T08:25:48;99774.91;;;33.73;31.73
56604;BME280;42486;47.478;19.036;2022-08-19T08:28:51;99765.78;;;33.48;32.11
56604;BME280;42486;47.478;19.036;2022-08-19T08:31:53;99763.50;;;33.16;33.46
56604;BME280;42486;47.478;19.036;2022-08-19T08:35:01;99769.59;;;32.72;34.38
56604;BME280;42486;47.478;19.036;2022-08-19T08:38:03;99763.03;;;32.94;33.78
56604;BME280;42486;47.478;19.036;2022-08-19T08:41:25;99766.66;;;32.53;34.32
56604;BME280;42486;47.478;19.036;2022-08-19T08:47:38;99759.75;;;33.12;33.16
56604;BME280;42486;47.478;19.036;2022-08-19T08:50:43;99759.78;;;33.62;30.15
56604;BME280;42486;47.478;19.036;2022-08-19T08:53:50;99742.69;;;33.17;30.92
56604;BME280;42486;47.478;19.036;2022-08-19T08:56:56;99732.81;;;33.41;31.47
56604;BME280;42486;47.478;19.036;2022-08-19T09:00:00;99735.19;;;33.48;31.48
56604;BME280;42486;47.478;19.036;2022-08-19T09:03:09;99743.06;;;33.44;30.73
56604;BME280;42486;47.478;19.036;2022-08-19T09:09:43;99745.19;;;33.58;31.19
56604;BME280;42486;47.478;19.036;2022-08-19T09:15:52;99738.31;;;33.21;31.65
56604;BME280;42486;47.478;19.036;2022-08-19T09:18:58;99750.97;;;33.36;31.53
56604;BME280;42486;47.478;19.036;2022-08-19T09:22:05;99738.38;;;33.65;31.29
56604;BME280;42486;47.478;19.036;2022-08-19T09:25:21;99740.19;;;33.75;31.09
56604;BME280;42486;47.478;19.036;2022-08-19T09:28:27;99735.66;;;33.65;31.48
56604;BME280;42486;47.478;19.036;2022-08-19T09:31:33;99736.19;;;34.02;30.98
56604;BME280;42486;47.478;19.036;2022-08-19T09:34:35;99728.44;;;33.90;31.00
56604;BME280;42486;47.478;19.036;2022-08-19T09:37:45;99723.09;;;33.80;31.25
56604;BME280;42486;47.478;19.036;2022-08-19T09:40:49;99718.41;;;33.90;31.78
56604;BME280;42486;47.478;19.036;2022-08-19T09:43:52;99712.63;;;34.02;30.31
56604;BME280;42486;47.478;19.036;2022-08-19T09:46:57;99710.44;;;33.99;30.21
56604;BME280;42486;47.478;19.036;2022-08-19T09:50:00;99706.66;;;34.00;30.43
56604;BME280;42486;47.478;19.036;2022-08-19T09:53:02;99699.28;;;34.11;29.88
56604;BME280;42486;47.478;19.036;2022-08-19T09:56:07;99693.16;;;34.53;29.95
56604;BME280;42486;47.478;19.036;2022-08-19T09:59:10;99696.22;;;34.71;29.28
56604;BME280;42486;47.478;19.036;2022-08-19T10:02:13;99686.34;;;34.56;29.29
56604;BME280;42486;47.478;19.036;2022-08-19T10:05:22;99690.69;;;34.81;29.45
56604;BME280;42486;47.478;19.036;2022-08-19T10:08:44;99689.16;;;35.18;27.86
56604;BME280;42486;47.478;19.036;2022-08-19T10:11:51;99695.22;;;34.67;28.44
56604;BME280;42486;47.478;19.036;2022-08-19T10:14:55;99694.66;;;34.89;28.51
56604;BME280;42486;47.478;19.036;2022-08-19T10:17:58;99687.16;;;34.80;28.58
56604;BME280;42486;47.478;19.036;2022-08-19T10:21:35;99690.50;;;34.96;28.15
56604;BME280;42486;47.478;19.036;2022-08-19T10:24:33;99682.59;;;34.76;28.04
56604;BME280;42486;47.478;19.036;2022-08-19T10:27:38;99687.91;;;35.29;28.23
56604;BME280;42486;47.478;19.036;2022-08-19T10:30:40;99683.44;;;35.38;28.39
56604;BME280;42486;47.478;19.036;2022-08-19T10:33:44;99678.72;;;35.06;28.17
56604;BME280;42486;47.478;19.036;2022-08-19T10:36:55;99671.72;;;35.00;28.74
56604;BME280;42486;47.478;19.036;2022-08-19T10:40:03;99675.22;;;35.24;29.05
56604;BME280;42486;47.478;19.036;2022-08-19T10:43:05;99675.72;;;35.45;27.57
56604;BME280;42486;47.478;19.036;2022-08-19T10:46:09;99683.00;;;35.31;27.94
56604;BME280;42486;47.478;19.036;2022-08-19T10:49:17;99671.03;;;35.70;27.47
56604;BME280;42486;47.478;19.036;2022-08-19T10:52:21;99673.72;;;36.03;27.12
56604;BME280;42486;47.478;19.036;2022-08-19T10:55:39;99671.28;;;36.34;27.08
56604;BME280;42486;47.478;19.036;2022-08-19T10:59:00;99675.00;;;36.24;26.54
56604;BME280;42486;47.478;19.036;2022-08-19T11:02:05;99682.22;;;35.82;26.62
56604;BME280;42486;47.478;19.036;2022-08-19T11:05:09;99673.41;;;36.23;26.61
56604;BME280;42486;47.478;19.036;2022-08-19T11:08:13;99677.56;;;36.62;26.21
56604;BME280;42486;47.478;19.036;2022-08-19T11:11:24;99664.16;;;36.52;26.75
56604;BME280;42486;47.478;19.036;2022-08-19T11:14:27;99669.78;;;36.83;25.28
56604;BME280;42486;47.478;19.036;2022-08-19T11:17:34;99665.63;;;36.86;25.92
56604;BME280;42486;47.478;19.036;2022-08-19T11:20:39;99676.50;;;36.99;24.95
56604;BME280;42486;47.478;19.036;2022-08-19T11:23:41;99662.31;;;36.89;25.49
56604;BME280;42486;47.478;19.036;2022-08-19T11:26:43;99664.25;;;36.47;25.57
56604;BME280;42486;47.478;19.036;2022-08-19T11:29:48;99663.38;;;36.65;25.59
56604;BME280;42486;47.478;19.036;2022-08-19T11:32:51;99664.69;;;37.18;24.43
56604;BME280;42486;47.478;19.036;2022-08-19T11:35:54;99659.28;;;37.40;24.00
56604;BME280;42486;47.478;19.036;2022-08-19T11:38:56;99659.75;;;37.20;24.95
56604;BME280;42486;47.478;19.036;2022-08-19T11:41:58;99665.03;;;37.39;24.56
56604;BME280;42486;47.478;19.036;2022-08-19T11:45:01;99658.81;;;37.24;24.28
56604;BME280;42486;47.478;19.036;2022-08-19T11:48:05;99651.41;;;37.39;24.51
56604;BME280;42486;47.478;19.036;2022-08-19T11:51:12;99652.34;;;37.79;23.77
56604;BME280;42486;47.478;19.036;2022-08-19T11:54:14;99648.94;;;37.96;23.48
56604;BME280;42486;47.478;19.036;2022-08-19T11:57:21;99648.94;;;37.74;23.94
56604;BME280;42486;47.478;19.036;2022-08-19T12:00:23;99651.25;;;37.58;23.94
56604;BME280;42486;47.478;19.036;2022-08-19T12:03:25;99632.75;;;38.00;23.48
56604;BME280;42486;47.478;19.036;2022-08-19T12:06:29;99636.59;;;37.76;23.74
56604;BME280;42486;47.478;19.036;2022-08-19T12:09:31;99636.47;;;37.81;24.10
56604;BME280;42486;47.478;19.036;2022-08-19T12:12:36;99635.47;;;38.00;24.10
56604;BME280;42486;47.478;19.036;2022-08-19T12:15:41;99636.59;;;37.76;23.92
56604;BME280;42486;47.478;19.036;2022-08-19T12:18:46;99640.13;;;37.77;23.03
56604;BME280;42486;47.478;19.036;2022-08-19T12:21:48;99634.00;;;37.71;23.26
56604;BME280;42486;47.478;19.036;2022-08-19T12:24:51;99641.00;;;37.63;23.15
56604;BME280;42486;47.478;19.036;2022-08-19T12:27:54;99649.00;;;37.60;23.59
56604;BME280;42486;47.478;19.036;2022-08-19T12:30:58;99645.81;;;37.21;23.51
56604;BME280;42486;47.478;19.036;2022-08-19T12:34:00;99645.97;;;37.02;25.03
56604;BME280;42486;47.478;19.036;2022-08-19T12:37:04;99647.25;;;37.41;23.63
56604;BME280;42486;47.478;19.036;2022-08-19T12:40:07;99645.25;;;37.33;23.89
56604;BME280;42486;47.478;19.036;2022-08-19T12:43:09;99631.31;;;37.12;24.58
56604;BME280;42486;47.478;19.036;2022-08-19T12:46:13;99622.78;;;37.28;23.73
56604;BME280;42486;47.478;19.036;2022-08-19T12:49:17;99612.69;;;37.06;24.16
56604;BME280;42486;47.478;19.036;2022-08-19T12:52:40;99609.94;;;37.06;24.91
56604;BME280;42486;47.478;19.036;2022-08-19T12:55:47;99607.28;;;37.14;23.90
56604;BME280;42486;47.478;19.036;2022-08-19T12:58:49;99601.12;;;36.72;24.08
56604;BME280;42486;47.478;19.036;2022-08-19T13:01:54;99593.53;;;36.83;25.44
56604;BME280;42486;47.478;19.036;2022-08-19T13:04:56;99597.06;;;36.84;25.74
56604;BME280;42486;47.478;19.036;2022-08-19T13:08:00;99602.09;;;36.90;24.81
56604;BME280;42486;47.478;19.036;2022-08-19T13:11:12;99608.28;;;37.18;24.51
56604;BME280;42486;47.478;19.036;2022-08-19T13:14:14;99604.87;;;37.58;23.68
56604;BME280;42486;47.478;19.036;2022-08-19T13:17:16;99597.91;;;37.97;23.04
56604;BME280;42486;47.478;19.036;2022-08-19T13:20:19;99579.41;;;37.85;23.09
56604;BME280;42486;47.478;19.036;2022-08-19T13:23:21;99593.25;;;37.97;23.84
56604;BME280;42486;47.478;19.036;2022-08-19T13:26:24;99590.22;;;37.99;22.42
56604;BME280;42486;47.478;19.036;2022-08-19T13:29:26;99589.13;;;38.08;22.14
56604;BME280;42486;47.478;19.036;2022-08-19T13:32:46;99587.56;;;38.16;22.46
56604;BME280;42486;47.478;19.036;2022-08-19T13:36:07;99589.84;;;38.23;23.19
56604;BME280;42486;47.478;19.036;2022-08-19T13:39:11;99591.53;;;37.79;22.90
56604;BME280;42486;47.478;19.036;2022-08-19T13:42:14;99582.34;;;37.43;23.24
56604;BME280;42486;47.478;19.036;2022-08-19T13:45:17;99572.63;;;37.06;23.87
56604;BME280;42486;47.478;19.036;2022-08-19T13:48:19;99582.28;;;36.98;24.08
56604;BME280;42486;47.478;19.036;2022-08-19T13:51:22;99579.19;;;37.05;24.17
56604;BME280;42486;47.478;19.036;2022-08-19T13:54:24;99576.03;;;37.12;24.66
56604;BME280;42486;47.478;19.036;2022-08-19T13:57:27;99574.41;;;37.11;25.36
56604;BME280;42486;47.478;19.036;2022-08-19T14:00:30;99574.50;;;36.69;26.91
56604;BME280;42486;47.478;19.036;2022-08-19T14:03:34;99572.69;;;35.95;28.53
56604;BME280;42486;47.478;19.036;2022-08-19T14:06:38;99583.88;;;34.72;31.35
56604;BME280;42486;47.478;19.036;2022-08-19T14:09:40;99577.16;;;33.92;33.13
56604;BME280;42486;47.478;19.036;2022-08-19T14:12:44;99577.38;;;33.32;34.27
56604;BME280;42486;47.478;19.036;2022-08-19T14:15:46;99586.78;;;33.05;34.61
56604;BME280;42486;47.478;19.036;2022-08-19T14:18:49;99584.44;;;32.88;34.88
56604;BME280;42486;47.478;19.036;2022-08-19T14:21:51;99575.22;;;32.89;34.93
56604;BME280;42486;47.478;19.036;2022-08-19T14:24:53;99566.28;;;32.89;34.85
56604;BME280;42486;47.478;19.036;2022-08-19T14:27:55;99559.72;;;33.00;34.99
56604;BME280;42486;47.478;19.036;2022-08-19T14:30:58;99565.91;;;33.11;34.85
56604;BME280;42486;47.478;19.036;2022-08-19T14:34:00;99566.59;;;32.87;35.29
56604;BME280;42486;47.478;19.036;2022-08-19T14:37:03;99570.72;;;32.70;35.50
56604;BME280;42486;47.478;19.036;2022-08-19T14:40:05;99563.28;;;32.36;35.62
56604;BME280;42486;47.478;19.036;2022-08-19T14:43:08;99572.50;;;32.24;35.36
56604;BME280;42486;47.478;19.036;2022-08-19T14:46:11;99573.09;;;32.11;36.23
56604;BME280;42486;47.478;19.036;2022-08-19T14:49:17;99560.13;;;32.13;35.61
56604;BME280;42486;47.478;19.036;2022-08-19T14:52:20;99564.22;;;31.95;34.88
56604;BME280;42486;47.478;19.036;2022-08-19T14:55:22;99580.16;;;31.92;34.65
56604;BME280;42486;47.478;19.036;2022-08-19T14:58:25;99591.78;;;31.67;33.42
56604;BME280;42486;47.478;19.036;2022-08-19T15:01:30;99602.00;;;31.24;33.61
56604;BME280;42486;47.478;19.036;2022-08-19T15:04:34;99599.34;;;31.39;33.10
56604;BME280;42486;47.478;19.036;2022-08-19T15:07:37;99611.50;;;31.42;31.76
56604;BME280;42486;47.478;19.036;2022-08-19T15:10:40;99616.28;;;31.24;31.73
56604;BME280;42486;47.478;19.036;2022-08-19T15:13:43;99634.63;;;31.17;31.48
56604;BME280;42486;47.478;19.036;2022-08-19T15:16:46;99626.00;;;31.10;31.17
56604;BME280;42486;47.478;19.036;2022-08-19T15:19:49;99632.78;;;31.28;31.22
56604;BME280;42486;47.478;19.036;2022-08-19T15:22:51;99637.09;;;31.29;30.72
56604;BME280;42486;47.478;19.036;2022-08-19T15:25:55;99658.16;;;31.32;31.01
56604;BME280;42486;47.478;19.036;2022-08-19T15:28:59;99651.13;;;31.26;30.76
56604;BME280;42486;47.478;19.036;2022-08-19T15:32:01;99671.34;;;31.18;30.92
56604;BME280;42486;47.478;19.036;2022-08-19T15:35:05;99674.28;;;31.06;31.08
56604;BME280;42486;47.478;19.036;2022-08-19T15:38:08;99677.75;;;30.91;31.34
56604;BME280;42486;47.478;19.036;2022-08-19T15:41:15;99674.13;;;30.70;31.67
56604;BME280;42486;47.478;19.036;2022-08-19T15:44:25;99663.06;;;30.72;31.76
56604;BME280;42486;47.478;19.036;2022-08-19T15:47:28;99643.63;;;30.65;31.88
56604;BME280;42486;47.478;19.036;2022-08-19T15:50:36;99616.31;;;30.51;31.99
56604;BME280;42486;47.478;19.036;2022-08-19T15:53:40;99618.22;;;30.61;32.15
56604;BME280;42486;47.478;19.036;2022-08-19T15:56:47;99615.84;;;30.64;32.05
56604;BME280;42486;47.478;19.036;2022-08-19T16:00:08;99618.28;;;30.71;31.91
56604;BME280;42486;47.478;19.036;2022-08-19T16:03:30;99623.97;;;30.75;32.13
56604;BME280;42486;47.478;19.036;2022-08-19T16:06:55;99621.75;;;30.66;31.96
56604;BME280;42486;47.478;19.036;2022-08-19T16:09:57;99615.81;;;30.59;32.88
56604;BME280;42486;47.478;19.036;2022-08-19T16:13:21;99605.53;;;30.51;32.49
56604;BME280;42486;47.478;19.036;2022-08-19T16:16:26;99595.00;;;30.49;33.30
56604;BME280;42486;47.478;19.036;2022-08-19T16:19:34;99592.59;;;30.48;33.10